sensor_id;sensor_type;location;lat;lon;timestamp;P1;durP1;ratioP1;P2;durP2;ratioP2
4460;SDS011;2243;48.812;9.232;2022-08-19T00:01:55;16.00;;;12.80;;
4460;SDS011;2243;48.812;9.232;2022-08-19T00:04:29;15.30;;;13.20;;
4460;SDS011;2243;48.812;9.232;2022-08-19T00:07:06;17.30;;;13.80;;
4460;SDS011;2243;48.812;9.232;2022-08-19T00:09:37;15.03;;;13.10;;
4460;SDS011;2243;48.812;9.232;2022-08-19T00:12:08;18.47;;;13.60;;
4460;SDS011;2243;48.812;9.232;2022-08-19T00:14:40;20.60;;;13.77;;
4460;SDS011;2243;48.812;9.232;2022-08-19T00:17:11;16.90;;;14.00;;
4460;SDS011;2243;48.812;9.232;2022-08-19T00:19:42;17.97;;;13.97;;
4460;SDS011;2243;48.812;9.232;2022-08-19T00:22:13;15.73;;;13.10;;
4460;SDS011;2243;48.812;9.232;2022-08-19T00:24:46;21.23;;;14.33;;
4460;SDS011;2243;48.812;9.232;2022-08-19T00:27:20;17.23;;;12.80;;
4460;SDS011;2243;48.812;9.232;2022-08-19T00:29:55;17.40;;;13.50;;
4460;SDS011;2243;48.812;9.232;2022-08-19T00:32:26;14.87;;;13.30;;
4460;SDS011;2243;48.812;9.232;2022-08-19T00:34:59;15.57;;;12.93;;
4460;SDS011;2243;48.812;9.232;2022-08-19T00:37:31;15.67;;;13.20;;
4460;SDS011;2243;48.812;9.232;2022-08-19T00:40:05;18.07;;;14.57;;
4460;SDS011;2243;48.812;9.232;2022-08-19T00:42:37;16.07;;;13.40;;
4460;SDS011;2243;48.812;9.232;2022-08-19T00:45:11;18.30;;;14.00;;
4460;SDS011;2243;48.812;9.232;2022-08-19T00:47:47;17.10;;;13.77;;
4460;SDS011;2243;48.812;9.232;2022-08-19T00:50:18;15.77;;;13.07;;
4460;SDS011;2243;48.812;9.232;2022-08-19T00:52:52;15.63;;;13.03;;
4460;SDS011;2243;48.812;9.232;2022-08-19T00:55:24;17.60;;;13.43;;
4460;SDS011;2243;48.812;9.232;2022-08-19T00:58:04;15.87;;;13.60;;
4460;SDS011;2243;48.812;9.232;2022-08-19T01:00:41;19.37;;;13.97;;
4460;SDS011;2243;48.812;9.232;2022-08-19T01:03:14;14.40;;;12.70;;
4460;SDS011;2243;48.812;9.232;2022-08-19T01:05:48;17.23;;;13.93;;
4460;SDS011;2243;48.812;9.232;2022-08-19T01:08:21;15.37;;;12.97;;
4460;SDS011;2243;48.812;9.232;2022-08-19T01:10:54;19.40;;;12.70;;
4460;SDS011;2243;48.812;9.232;2022-08-19T01:13:29;14.60;;;12.87;;
4460;SDS011;2243;48.812;9.232;2022-08-19T01:16:20;17.23;;;13.17;;
4460;SDS011;2243;48.812;9.232;2022-08-19T01:18:54;14.27;;;12.70;;
4460;SDS011;2243;48.812;9.232;2022-08-19T01:21:34;15.17;;;12.63;;
4460;SDS011;2243;48.812;9.232;2022-08-19T01:24:16;17.57;;;13.27;;
4460;SDS011;2243;48.812;9.232;2022-08-19T01:26:47;16.20;;;13.77;;
4460;SDS011;2243;48.812;9.232;2022-08-19T01:29:18;17.27;;;13.83;;
4460;SDS011;2243;48.812;9.232;2022-08-19T01:31:50;19.03;;;13.70;;
4460;SDS011;2243;48.812;9.232;2022-08-19T01:34:22;16.37;;;13.07;;
4460;SDS011;2243;48.812;9.232;2022-08-19T01:36:54;19.33;;;13.97;;
4460;SDS011;2243;48.812;9.232;2022-08-19T01:39:25;16.43;;;13.87;;
4460;SDS011;2243;48.812;9.232;2022-08-19T01:41:56;16.53;;;13.77;;
4460;SDS011;2243;48.812;9.232;2022-08-19T01:44:27;19.40;;;14.20;;
4460;SDS011;2243;48.812;9.232;2022-08-19T01:46:59;21.30;;;13.33;;
4460;SDS011;2243;48.812;9.232;2022-08-19T01:49:30;16.30;;;13.67;;
4460;SDS011;2243;48.812;9.232;2022-08-19T01:52:01;20.53;;;14.80;;
4460;SDS011;2243;48.812;9.232;2022-08-19T01:54:34;17.40;;;13.40;;
4460;SDS011;2243;48.812;9.232;2022-08-19T01:57:07;17.33;;;13.47;;
4460;SDS011;2243;48.812;9.232;2022-08-19T01:59:41;23.13;;;15.00;;
4460;SDS011;2243;48.812;9.232;2022-08-19T02:02:13;16.50;;;14.03;;
4460;SDS011;2243;48.812;9.232;2022-08-19T02:04:44;18.87;;;15.20;;
4460;SDS011;2243;48.812;9.232;2022-08-19T02:07:18;19.43;;;14.10;;
4460;SDS011;2243;48.812;9.232;2022-08-19T02:09:52;18.90;;;15.13;;
4460;SDS011;2243;48.812;9.232;2022-08-19T02:12:25;21.40;;;14.50;;
4460;SDS011;2243;48.812;9.232;2022-08-19T02:14:56;18.17;;;15.57;;
4460;SDS011;2243;48.812;9.232;2022-08-19T02:17:27;27.80;;;14.87;;
4460;SDS011;2243;48.812;9.232;2022-08-19T02:19:59;19.10;;;14.83;;
4460;SDS011;2243;48.812;9.232;2022-08-19T02:22:30;21.03;;;15.83;;
4460;SDS011;2243;48.812;9.232;2022-08-19T02:25:02;18.23;;;14.07;;
4460;SDS011;2243;48.812;9.232;2022-08-19T02:27:35;22.10;;;15.80;;
4460;SDS011;2243;48.812;9.232;2022-08-19T02:30:08;19.53;;;16.30;;
4460;SDS011;2243;48.812;9.232;2022-08-19T02:32:43;20.50;;;15.77;;
4460;SDS011;2243;48.812;9.232;2022-08-19T02:35:14;19.03;;;15.53;;
4460;SDS011;2243;48.812;9.232;2022-08-19T02:37:45;21.47;;;16.47;;
4460;SDS011;2243;48.812;9.232;2022-08-19T02:40:36;22.93;;;15.80;;
4460;SDS011;2243;48.812;9.232;2022-08-19T02:43:07;24.53;;;18.43;;
4460;SDS011;2243;48.812;9.232;2022-08-19T02:45:39;23.70;;;17.20;;
4460;SDS011;2243;48.812;9.232;2022-08-19T02:48:10;21.40;;;16.03;;
4460;SDS011;2243;48.812;9.232;2022-08-19T02:50:51;22.37;;;17.10;;
4460;SDS011;2243;48.812;9.232;2022-08-19T02:53:26;25.23;;;16.93;;
4460;SDS011;2243;48.812;9.232;2022-08-19T02:55:58;29.73;;;17.20;;
4460;SDS011;2243;48.812;9.232;2022-08-19T02:58:29;30.53;;;18.43;;
4460;SDS011;2243;48.812;9.232;2022-08-19T03:01:00;24.40;;;18.17;;
4460;SDS011;2243;48.812;9.232;2022-08-19T03:03:31;25.17;;;17.20;;
4460;SDS011;2243;48.812;9.232;2022-08-19T03:06:03;26.90;;;19.17;;
4460;SDS011;2243;48.812;9.232;2022-08-19T03:08:44;25.07;;;18.67;;
4460;SDS011;2243;48.812;9.232;2022-08-19T03:13:52;29.00;;;18.47;;
4460;SDS011;2243;48.812;9.232;2022-08-19T03:16:25;26.70;;;18.03;;
4460;SDS011;2243;48.812;9.232;2022-08-19T03:19:02;26.90;;;18.30;;
4460;SDS011;2243;48.812;9.232;2022-08-19T03:21:34;25.13;;;18.83;;
4460;SDS011;2243;48.812;9.232;2022-08-19T03:24:06;27.50;;;18.10;;
4460;SDS011;2243;48.812;9.232;2022-08-19T03:26:40;25.67;;;16.93;;
4460;SDS011;2243;48.812;9.232;2022-08-19T03:29:22;28.90;;;18.90;;
4460;SDS011;2243;48.812;9.232;2022-08-19T03:32:00;29.33;;;20.37;;
4460;SDS011;2243;48.812;9.232;2022-08-19T03:34:36;27.00;;;19.10;;
4460;SDS011;2243;48.812;9.232;2022-08-19T03:37:09;25.10;;;18.67;;
4460;SDS011;2243;48.812;9.232;2022-08-19T03:39:44;27.50;;;20.83;;
4460;SDS011;2243;48.812;9.232;2022-08-19T03:42:15;26.23;;;18.97;;
4460;SDS011;2243;48.812;9.232;2022-08-19T03:45:02;27.67;;;19.20;;
4460;SDS011;2243;48.812;9.232;2022-08-19T03:47:34;27.07;;;18.93;;
4460;SDS011;2243;48.812;9.232;2022-08-19T03:50:05;25.10;;;19.47;;
4460;SDS011;2243;48.812;9.232;2022-08-19T03:52:36;24.87;;;17.93;;
4460;SDS011;2243;48.812;9.232;2022-08-19T03:55:07;25.20;;;20.03;;
4460;SDS011;2243;48.812;9.232;2022-08-19T03:57:38;29.80;;;20.27;;
4460;SDS011;2243;48.812;9.232;2022-08-19T04:00:09;23.63;;;19.50;;
4460;SDS011;2243;48.812;9.232;2022-08-19T04:02:43;23.03;;;18.70;;
4460;SDS011;2243;48.812;9.232;2022-08-19T04:05:30;27.80;;;19.17;;
4460;SDS011;2243;48.812;9.232;2022-08-19T04:08:00;29.40;;;21.20;;
4460;SDS011;2243;48.812;9.232;2022-08-19T04:10:36;29.07;;;20.50;;
4460;SDS011;2243;48.812;9.232;2022-08-19T04:13:07;26.40;;;19.80;;
4460;SDS011;2243;48.812;9.232;2022-08-19T04:15:42;33.00;;;19.87;;
4460;SDS011;2243;48.812;9.232;2022-08-19T04:18:16;27.50;;;20.63;;
4460;SDS011;2243;48.812;9.232;2022-08-19T04:20:48;29.83;;;21.00;;
4460;SDS011;2243;48.812;9.232;2022-08-19T04:23:19;26.97;;;20.30;;
4460;SDS011;2243;48.812;9.232;2022-08-19T04:25:50;25.67;;;19.47;;
4460;SDS011;2243;48.812;9.232;2022-08-19T04:28:22;29.67;;;21.30;;
4460;SDS011;2243;48.812;9.232;2022-08-19T04:30:54;28.17;;;19.67;;
4460;SDS011;2243;48.812;9.232;2022-08-19T04:33:26;28.63;;;19.70;;
4460;SDS011;2243;48.812;9.232;2022-08-19T04:35:58;28.90;;;22.23;;
4460;SDS011;2243;48.812;9.232;2022-08-19T04:38:30;33.73;;;22.10;;
4460;SDS011;2243;48.812;9.232;2022-08-19T04:41:02;34.63;;;22.77;;
4460;SDS011;2243;48.812;9.232;2022-08-19T04:43:52;29.90;;;20.97;;
4460;SDS011;2243;48.812;9.232;2022-08-19T04:46:23;30.40;;;21.70;;
4460;SDS011;2243;48.812;9.232;2022-08-19T04:49:14;28.30;;;19.80;;
4460;SDS011;2243;48.812;9.232;2022-08-19T04:51:48;25.37;;;19.13;;
4460;SDS011;2243;48.812;9.232;2022-08-19T04:54:23;28.73;;;20.90;;
4460;SDS011;2243;48.812;9.232;2022-08-19T04:57:08;26.73;;;19.10;;
4460;SDS011;2243;48.812;9.232;2022-08-19T04:59:41;32.53;;;21.17;;
4460;SDS011;2243;48.812;9.232;2022-08-19T05:02:12;28.40;;;20.67;;
4460;SDS011;2243;48.812;9.232;2022-08-19T05:04:43;28.33;;;21.20;;
4460;SDS011;2243;48.812;9.232;2022-08-19T05:07:14;28.70;;;20.40;;
4460;SDS011;2243;48.812;9.232;2022-08-19T05:09:45;28.73;;;20.50;;
4460;SDS011;2243;48.812;9.232;2022-08-19T05:12:28;31.10;;;20.37;;
4460;SDS011;2243;48.812;9.232;2022-08-19T05:14:59;29.53;;;20.80;;
4460;SDS011;2243;48.812;9.232;2022-08-19T05:17:30;28.07;;;21.00;;
4460;SDS011;2243;48.812;9.232;2022-08-19T05:20:07;28.40;;;20.20;;
4460;SDS011;2243;48.812;9.232;2022-08-19T05:22:58;31.20;;;22.40;;
4460;SDS011;2243;48.812;9.232;2022-08-19T05:25:29;31.20;;;22.03;;
4460;SDS011;2243;48.812;9.232;2022-08-19T05:28:00;26.83;;;20.87;;
4460;SDS011;2243;48.812;9.232;2022-08-19T05:30:31;32.93;;;22.50;;
4460;SDS011;2243;48.812;9.232;2022-08-19T05:33:17;26.80;;;20.90;;
4460;SDS011;2243;48.812;9.232;2022-08-19T05:35:48;27.50;;;21.33;;
4460;SDS011;2243;48.812;9.232;2022-08-19T05:38:20;32.13;;;23.00;;
4460;SDS011;2243;48.812;9.232;2022-08-19T05:40:51;26.80;;;20.67;;
4460;SDS011;2243;48.812;9.232;2022-08-19T05:43:22;31.70;;;22.30;;
4460;SDS011;2243;48.812;9.232;2022-08-19T05:45:53;32.37;;;22.50;;
4460;SDS011;2243;48.812;9.232;2022-08-19T05:48:24;32.03;;;22.00;;
4460;SDS011;2243;48.812;9.232;2022-08-19T05:50:56;27.77;;;19.77;;
4460;SDS011;2243;48.812;9.232;2022-08-19T05:53:28;33.80;;;21.63;;
4460;SDS011;2243;48.812;9.232;2022-08-19T05:56:17;33.20;;;21.40;;
4460;SDS011;2243;48.812;9.232;2022-08-19T05:58:49;25.73;;;19.00;;
4460;SDS011;2243;48.812;9.232;2022-08-19T06:01:20;28.00;;;21.27;;
4460;SDS011;2243;48.812;9.232;2022-08-19T06:03:51;26.13;;;20.07;;
4460;SDS011;2243;48.812;9.232;2022-08-19T06:06:23;30.50;;;23.23;;
4460;SDS011;2243;48.812;9.232;2022-08-19T06:08:54;33.10;;;22.07;;
4460;SDS011;2243;48.812;9.232;2022-08-19T06:11:33;34.33;;;22.50;;
4460;SDS011;2243;48.812;9.232;2022-08-19T06:14:15;28.00;;;22.43;;
4460;SDS011;2243;48.812;9.232;2022-08-19T06:16:57;30.97;;;22.60;;
4460;SDS011;2243;48.812;9.232;2022-08-19T06:19:36;27.00;;;21.30;;
4460;SDS011;2243;48.812;9.232;2022-08-19T06:22:10;30.43;;;23.23;;
4460;SDS011;2243;48.812;9.232;2022-08-19T06:24:43;31.00;;;21.90;;
4460;SDS011;2243;48.812;9.232;2022-08-19T06:27:14;33.50;;;22.30;;
4460;SDS011;2243;48.812;9.232;2022-08-19T06:29:46;34.50;;;23.10;;
4460;SDS011;2243;48.812;9.232;2022-08-19T06:32:17;30.40;;;22.90;;
4460;SDS011;2243;48.812;9.232;2022-08-19T06:34:51;30.50;;;23.43;;
4460;SDS011;2243;48.812;9.232;2022-08-19T06:37:23;31.83;;;22.30;;
4460;SDS011;2243;48.812;9.232;2022-08-19T06:39:54;30.00;;;20.97;;
4460;SDS011;2243;48.812;9.232;2022-08-19T06:42:25;32.07;;;22.87;;
4460;SDS011;2243;48.812;9.232;2022-08-19T06:44:56;27.80;;;21.77;;
4460;SDS011;2243;48.812;9.232;2022-08-19T06:47:29;30.93;;;21.77;;
4460;SDS011;2243;48.812;9.232;2022-08-19T06:50:01;31.20;;;22.60;;
4460;SDS011;2243;48.812;9.232;2022-08-19T06:52:35;32.93;;;23.03;;
4460;SDS011;2243;48.812;9.232;2022-08-19T06:55:07;29.77;;;21.37;;
4460;SDS011;2243;48.812;9.232;2022-08-19T06:57:39;33.80;;;22.60;;
4460;SDS011;2243;48.812;9.232;2022-08-19T07:00:10;26.20;;;20.60;;
4460;SDS011;2243;48.812;9.232;2022-08-19T07:02:43;31.00;;;20.40;;
4460;SDS011;2243;48.812;9.232;2022-08-19T07:05:26;27.93;;;21.03;;
4460;SDS011;2243;48.812;9.232;2022-08-19T07:07:57;35.40;;;22.30;;
4460;SDS011;2243;48.812;9.232;2022-08-19T07:10:34;27.53;;;21.40;;
4460;SDS011;2243;48.812;9.232;2022-08-19T07:13:11;30.73;;;20.73;;
4460;SDS011;2243;48.812;9.232;2022-08-19T07:15:43;30.33;;;22.30;;
4460;SDS011;2243;48.812;9.232;2022-08-19T07:18:17;30.47;;;21.40;;
4460;SDS011;2243;48.812;9.232;2022-08-19T07:21:01;28.20;;;22.10;;
4460;SDS011;2243;48.812;9.232;2022-08-19T07:23:44;30.50;;;20.77;;
4460;SDS011;2243;48.812;9.232;2022-08-19T07:26:17;26.40;;;20.13;;
4460;SDS011;2243;48.812;9.232;2022-08-19T07:28:57;26.63;;;20.67;;
4460;SDS011;2243;48.812;9.232;2022-08-19T07:31:33;29.90;;;21.07;;
4460;SDS011;2243;48.812;9.232;2022-08-19T07:34:07;33.00;;;21.90;;
4460;SDS011;2243;48.812;9.232;2022-08-19T07:36:42;27.07;;;19.60;;
4460;SDS011;2243;48.812;9.232;2022-08-19T07:39:15;31.93;;;20.73;;
4460;SDS011;2243;48.812;9.232;2022-08-19T07:41:49;27.40;;;20.00;;
4460;SDS011;2243;48.812;9.232;2022-08-19T07:44:21;24.67;;;18.53;;
4460;SDS011;2243;48.812;9.232;2022-08-19T07:46:54;28.23;;;19.60;;
4460;SDS011;2243;48.812;9.232;2022-08-19T07:49:27;27.00;;;19.50;;
4460;SDS011;2243;48.812;9.232;2022-08-19T07:51:59;31.33;;;19.60;;
4460;SDS011;2243;48.812;9.232;2022-08-19T07:54:37;22.27;;;17.93;;
4460;SDS011;2243;48.812;9.232;2022-08-19T07:57:09;25.93;;;18.13;;
4460;SDS011;2243;48.812;9.232;2022-08-19T07:59:40;18.97;;;15.60;;
4460;SDS011;2243;48.812;9.232;2022-08-19T08:02:11;25.50;;;18.50;;
4460;SDS011;2243;48.812;9.232;2022-08-19T08:04:42;25.90;;;18.63;;
4460;SDS011;2243;48.812;9.232;2022-08-19T08:07:32;25.50;;;19.67;;
4460;SDS011;2243;48.812;9.232;2022-08-19T08:10:21;24.60;;;17.40;;
4460;SDS011;2243;48.812;9.232;2022-08-19T08:12:53;26.37;;;19.33;;
4460;SDS011;2243;48.812;9.232;2022-08-19T08:15:38;26.90;;;18.90;;
4460;SDS011;2243;48.812;9.232;2022-08-19T08:18:12;24.67;;;19.73;;
4460;SDS011;2243;48.812;9.232;2022-08-19T08:20:44;21.90;;;17.73;;
4460;SDS011;2243;48.812;9.232;2022-08-19T08:23:15;22.50;;;19.07;;
4460;SDS011;2243;48.812;9.232;2022-08-19T08:25:56;32.30;;;20.90;;
4460;SDS011;2243;48.812;9.232;2022-08-19T08:28:29;23.20;;;18.23;;
4460;SDS011;2243;48.812;9.232;2022-08-19T08:31:00;25.07;;;20.70;;
4460;SDS011;2243;48.812;9.232;2022-08-19T08:33:38;28.10;;;20.17;;
4460;SDS011;2243;48.812;9.232;2022-08-19T08:36:12;25.60;;;18.73;;
4460;SDS011;2243;48.812;9.232;2022-08-19T08:38:45;21.90;;;17.70;;
4460;SDS011;2243;48.812;9.232;2022-08-19T08:44:00;23.97;;;18.30;;
4460;SDS011;2243;48.812;9.232;2022-08-19T08:46:39;30.90;;;21.20;;
4460;SDS011;2243;48.812;9.232;2022-08-19T08:52:31;31.27;;;18.90;;
4460;SDS011;2243;48.812;9.232;2022-08-19T08:55:17;22.20;;;18.20;;
4460;SDS011;2243;48.812;9.232;2022-08-19T09:00:39;26.87;;;19.17;;
4460;SDS011;2243;48.812;9.232;2022-08-19T09:03:17;27.50;;;19.57;;
4460;SDS011;2243;48.812;9.232;2022-08-19T09:06:05;28.73;;;18.63;;
4460;SDS011;2243;48.812;9.232;2022-08-19T09:09:26;25.50;;;18.20;;
4460;SDS011;2243;48.812;9.232;2022-08-19T09:12:23;23.07;;;18.90;;
4460;SDS011;2243;48.812;9.232;2022-08-19T09:15:12;20.83;;;17.10;;
4460;SDS011;2243;48.812;9.232;2022-08-19T09:17:44;24.70;;;18.80;;
4460;SDS011;2243;48.812;9.232;2022-08-19T09:20:20;24.93;;;17.23;;
4460;SDS011;2243;48.812;9.232;2022-08-19T09:22:55;23.00;;;17.63;;
4460;SDS011;2243;48.812;9.232;2022-08-19T09:25:26;22.67;;;18.30;;
4460;SDS011;2243;48.812;9.232;2022-08-19T09:27:58;25.37;;;18.60;;
4460;SDS011;2243;48.812;9.232;2022-08-19T09:30:44;22.60;;;17.10;;
4460;SDS011;2243;48.812;9.232;2022-08-19T09:33:15;22.57;;;17.60;;
4460;SDS011;2243;48.812;9.232;2022-08-19T09:35:46;22.93;;;16.80;;
4460;SDS011;2243;48.812;9.232;2022-08-19T09:38:22;21.30;;;17.63;;
4460;SDS011;2243;48.812;9.232;2022-08-19T09:40:53;22.93;;;18.10;;
4460;SDS011;2243;48.812;9.232;2022-08-19T09:43:25;29.13;;;18.50;;
4460;SDS011;2243;48.812;9.232;2022-08-19T09:46:13;25.60;;;17.17;;
4460;SDS011;2243;48.812;9.232;2022-08-19T09:48:47;26.47;;;16.77;;
4460;SDS011;2243;48.812;9.232;2022-08-19T09:51:22;26.30;;;18.10;;
4460;SDS011;2243;48.812;9.232;2022-08-19T09:53:58;23.40;;;17.03;;
4460;SDS011;2243;48.812;9.232;2022-08-19T09:56:34;21.23;;;16.00;;
4460;SDS011;2243;48.812;9.232;2022-08-19T09:59:05;22.10;;;17.10;;
4460;SDS011;2243;48.812;9.232;2022-08-19T10:01:36;25.30;;;16.93;;
4460;SDS011;2243;48.812;9.232;2022-08-19T10:04:07;22.80;;;16.97;;
4460;SDS011;2243;48.812;9.232;2022-08-19T10:06:49;22.67;;;16.03;;
4460;SDS011;2243;48.812;9.232;2022-08-19T10:09:23;21.07;;;16.17;;
4460;SDS011;2243;48.812;9.232;2022-08-19T10:12:03;21.40;;;16.03;;
4460;SDS011;2243;48.812;9.232;2022-08-19T10:14:40;21.87;;;17.10;;
4460;SDS011;2243;48.812;9.232;2022-08-19T10:17:12;18.90;;;15.90;;
4460;SDS011;2243;48.812;9.232;2022-08-19T10:19:49;21.07;;;16.10;;
4460;SDS011;2243;48.812;9.232;2022-08-19T10:22:25;23.73;;;16.90;;
4460;SDS011;2243;48.812;9.232;2022-08-19T10:24:56;19.20;;;14.47;;
4460;SDS011;2243;48.812;9.232;2022-08-19T10:27:27;20.03;;;14.80;;
4460;SDS011;2243;48.812;9.232;2022-08-19T10:30:01;17.13;;;14.77;;
4460;SDS011;2243;48.812;9.232;2022-08-19T10:32:32;18.30;;;14.43;;
4460;SDS011;2243;48.812;9.232;2022-08-19T10:35:04;18.23;;;15.50;;
4460;SDS011;2243;48.812;9.232;2022-08-19T10:37:39;18.23;;;13.83;;
4460;SDS011;2243;48.812;9.232;2022-08-19T10:40:27;19.40;;;13.50;;
4460;SDS011;2243;48.812;9.232;2022-08-19T10:42:58;24.30;;;15.13;;
4460;SDS011;2243;48.812;9.232;2022-08-19T10:45:29;19.23;;;13.70;;
4460;SDS011;2243;48.812;9.232;2022-08-19T10:48:02;19.57;;;13.97;;
4460;SDS011;2243;48.812;9.232;2022-08-19T10:50:33;16.03;;;13.10;;
4460;SDS011;2243;48.812;9.232;2022-08-19T10:53:22;19.20;;;13.90;;
4460;SDS011;2243;48.812;9.232;2022-08-19T10:55:55;18.43;;;13.67;;
4460;SDS011;2243;48.812;9.232;2022-08-19T10:58:44;15.33;;;13.63;;
4460;SDS011;2243;48.812;9.232;2022-08-19T11:01:15;17.80;;;13.50;;
4460;SDS011;2243;48.812;9.232;2022-08-19T11:03:46;14.00;;;12.00;;
4460;SDS011;2243;48.812;9.232;2022-08-19T11:06:18;14.87;;;12.53;;
4460;SDS011;2243;48.812;9.232;2022-08-19T11:08:51;14.37;;;12.87;;
4460;SDS011;2243;48.812;9.232;2022-08-19T11:11:24;16.13;;;12.60;;
4460;SDS011;2243;48.812;9.232;2022-08-19T11:13:56;13.03;;;11.70;;
4460;SDS011;2243;48.812;9.232;2022-08-19T11:16:27;13.43;;;12.13;;
4460;SDS011;2243;48.812;9.232;2022-08-19T11:19:00;13.30;;;10.93;;
4460;SDS011;2243;48.812;9.232;2022-08-19T11:21:33;12.90;;;10.67;;
4460;SDS011;2243;48.812;9.232;2022-08-19T11:24:11;9.47;;;8.47;;
4460;SDS011;2243;48.812;9.232;2022-08-19T11:26:53;14.13;;;10.57;;
4460;SDS011;2243;48.812;9.232;2022-08-19T11:29:30;16.60;;;9.60;;
4460;SDS011;2243;48.812;9.232;2022-08-19T11:32:04;12.53;;;11.03;;
4460;SDS011;2243;48.812;9.232;2022-08-19T11:34:39;10.50;;;9.13;;
4460;SDS011;2243;48.812;9.232;2022-08-19T11:37:10;14.67;;;9.93;;
4460;SDS011;2243;48.812;9.232;2022-08-19T11:39:41;11.27;;;9.60;;
4460;SDS011;2243;48.812;9.232;2022-08-19T11:42:12;9.47;;;8.47;;
4460;SDS011;2243;48.812;9.232;2022-08-19T11:45:09;9.27;;;8.47;;
4460;SDS011;2243;48.812;9.232;2022-08-19T11:47:40;10.80;;;9.70;;
4460;SDS011;2243;48.812;9.232;2022-08-19T11:50:11;12.63;;;9.23;;
4460;SDS011;2243;48.812;9.232;2022-08-19T11:52:42;10.30;;;9.40;;
4460;SDS011;2243;48.812;9.232;2022-08-19T11:55:15;14.83;;;9.80;;
4460;SDS011;2243;48.812;9.232;2022-08-19T11:57:46;12.17;;;9.83;;
4460;SDS011;2243;48.812;9.232;2022-08-19T12:00:17;11.37;;;9.37;;
4460;SDS011;2243;48.812;9.232;2022-08-19T12:02:48;10.20;;;9.30;;
4460;SDS011;2243;48.812;9.232;2022-08-19T12:05:20;9.80;;;8.80;;
4460;SDS011;2243;48.812;9.232;2022-08-19T12:07:51;10.17;;;9.00;;
4460;SDS011;2243;48.812;9.232;2022-08-19T12:10:24;12.13;;;9.57;;
4460;SDS011;2243;48.812;9.232;2022-08-19T12:12:55;11.57;;;9.10;;
4460;SDS011;2243;48.812;9.232;2022-08-19T12:15:28;16.33;;;12.80;;
4460;SDS011;2243;48.812;9.232;2022-08-19T12:18:07;21.07;;;15.40;;
4460;SDS011;2243;48.812;9.232;2022-08-19T12:20:39;19.50;;;16.87;;
4460;SDS011;2243;48.812;9.232;2022-08-19T12:23:12;28.70;;;20.03;;
4460;SDS011;2243;48.812;9.232;2022-08-19T12:25:45;23.77;;;18.23;;
4460;SDS011;2243;48.812;9.232;2022-08-19T12:28:22;25.03;;;18.80;;
4460;SDS011;2243;48.812;9.232;2022-08-19T12:30:55;28.33;;;18.53;;
4460;SDS011;2243;48.812;9.232;2022-08-19T12:33:27;27.10;;;18.83;;
4460;SDS011;2243;48.812;9.232;2022-08-19T12:36:02;24.00;;;18.57;;
4460;SDS011;2243;48.812;9.232;2022-08-19T12:38:36;24.37;;;19.00;;
4460;SDS011;2243;48.812;9.232;2022-08-19T12:41:10;22.83;;;18.33;;
4460;SDS011;2243;48.812;9.232;2022-08-19T12:43:48;27.57;;;20.33;;
4460;SDS011;2243;48.812;9.232;2022-08-19T12:46:20;29.63;;;22.80;;
4460;SDS011;2243;48.812;9.232;2022-08-19T12:48:56;32.90;;;23.73;;
4460;SDS011;2243;48.812;9.232;2022-08-19T12:51:27;33.03;;;22.70;;
4460;SDS011;2243;48.812;9.232;2022-08-19T12:53:58;37.97;;;24.17;;
4460;SDS011;2243;48.812;9.232;2022-08-19T12:56:29;30.13;;;21.80;;
4460;SDS011;2243;48.812;9.232;2022-08-19T12:59:02;28.73;;;22.60;;
4460;SDS011;2243;48.812;9.232;2022-08-19T13:01:34;29.80;;;21.93;;
4460;SDS011;2243;48.812;9.232;2022-08-19T13:04:05;31.73;;;20.60;;
4460;SDS011;2243;48.812;9.232;2022-08-19T13:06:36;33.70;;;23.40;;
4460;SDS011;2243;48.812;9.232;2022-08-19T13:09:07;33.10;;;22.67;;
4460;SDS011;2243;48.812;9.232;2022-08-19T13:11:39;37.03;;;23.60;;
4460;SDS011;2243;48.812;9.232;2022-08-19T13:14:10;29.40;;;21.83;;
4460;SDS011;2243;48.812;9.232;2022-08-19T13:16:41;27.53;;;21.57;;
4460;SDS011;2243;48.812;9.232;2022-08-19T13:19:12;27.93;;;20.57;;
4460;SDS011;2243;48.812;9.232;2022-08-19T13:21:43;28.93;;;22.83;;
4460;SDS011;2243;48.812;9.232;2022-08-19T13:24:15;27.50;;;21.00;;
4460;SDS011;2243;48.812;9.232;2022-08-19T13:26:46;31.43;;;22.70;;
4460;SDS011;2243;48.812;9.232;2022-08-19T13:29:18;31.70;;;23.83;;
4460;SDS011;2243;48.812;9.232;2022-08-19T13:32:12;35.47;;;25.03;;
4460;SDS011;2243;48.812;9.232;2022-08-19T13:35:02;34.33;;;24.33;;
4460;SDS011;2243;48.812;9.232;2022-08-19T13:37:34;30.30;;;22.73;;
4460;SDS011;2243;48.812;9.232;2022-08-19T13:40:16;34.47;;;24.10;;
4460;SDS011;2243;48.812;9.232;2022-08-19T13:42:54;31.03;;;22.10;;
4460;SDS011;2243;48.812;9.232;2022-08-19T13:45:27;39.40;;;24.77;;
4460;SDS011;2243;48.812;9.232;2022-08-19T13:48:00;32.53;;;22.70;;
4460;SDS011;2243;48.812;9.232;2022-08-19T13:50:41;29.03;;;21.80;;
4460;SDS011;2243;48.812;9.232;2022-08-19T13:53:15;33.80;;;23.60;;
4460;SDS011;2243;48.812;9.232;2022-08-19T13:55:46;34.77;;;23.50;;
4460;SDS011;2243;48.812;9.232;2022-08-19T13:58:17;34.23;;;24.27;;
4460;SDS011;2243;48.812;9.232;2022-08-19T14:00:48;35.17;;;24.03;;
4460;SDS011;2243;48.812;9.232;2022-08-19T14:03:20;34.20;;;24.07;;
4460;SDS011;2243;48.812;9.232;2022-08-19T14:05:51;41.77;;;25.70;;
4460;SDS011;2243;48.812;9.232;2022-08-19T14:08:22;33.63;;;24.90;;
4460;SDS011;2243;48.812;9.232;2022-08-19T14:10:54;32.53;;;24.13;;
4460;SDS011;2243;48.812;9.232;2022-08-19T14:13:25;32.63;;;23.67;;
4460;SDS011;2243;48.812;9.232;2022-08-19T14:15:56;36.20;;;25.13;;
4460;SDS011;2243;48.812;9.232;2022-08-19T14:18:28;42.87;;;26.77;;
4460;SDS011;2243;48.812;9.232;2022-08-19T14:21:00;42.87;;;26.90;;
4460;SDS011;2243;48.812;9.232;2022-08-19T14:23:31;42.10;;;27.57;;
4460;SDS011;2243;48.812;9.232;2022-08-19T14:26:04;39.80;;;26.87;;
4460;SDS011;2243;48.812;9.232;2022-08-19T14:28:42;35.93;;;26.30;;
4460;SDS011;2243;48.812;9.232;2022-08-19T14:31:15;47.43;;;29.30;;
4460;SDS011;2243;48.812;9.232;2022-08-19T14:33:49;43.30;;;27.73;;
4460;SDS011;2243;48.812;9.232;2022-08-19T14:36:20;40.33;;;26.67;;
4460;SDS011;2243;48.812;9.232;2022-08-19T14:38:51;37.57;;;25.60;;
4460;SDS011;2243;48.812;9.232;2022-08-19T14:41:23;38.10;;;27.43;;
4460;SDS011;2243;48.812;9.232;2022-08-19T14:43:54;38.57;;;29.43;;
4460;SDS011;2243;48.812;9.232;2022-08-19T14:46:26;41.20;;;26.87;;
4460;SDS011;2243;48.812;9.232;2022-08-19T14:48:59;35.57;;;26.70;;
4460;SDS011;2243;48.812;9.232;2022-08-19T14:51:38;36.37;;;25.43;;
4460;SDS011;2243;48.812;9.232;2022-08-19T14:54:09;38.37;;;26.33;;
4460;SDS011;2243;48.812;9.232;2022-08-19T14:56:40;40.07;;;28.03;;
4460;SDS011;2243;48.812;9.232;2022-08-19T14:59:11;36.43;;;26.57;;
4460;SDS011;2243;48.812;9.232;2022-08-19T15:01:42;38.33;;;26.80;;
4460;SDS011;2243;48.812;9.232;2022-08-19T15:04:13;37.40;;;26.93;;
4460;SDS011;2243;48.812;9.232;2022-08-19T15:06:44;37.30;;;26.53;;
4460;SDS011;2243;48.812;9.232;2022-08-19T15:09:16;41.87;;;28.10;;
4460;SDS011;2243;48.812;9.232;2022-08-19T15:11:47;37.17;;;26.93;;
4460;SDS011;2243;48.812;9.232;2022-08-19T15:14:19;37.77;;;26.87;;
4460;SDS011;2243;48.812;9.232;2022-08-19T15:16:51;33.93;;;22.83;;
4460;SDS011;2243;48.812;9.232;2022-08-19T15:19:22;33.57;;;25.70;;
4460;SDS011;2243;48.812;9.232;2022-08-19T15:21:53;33.97;;;23.77;;
4460;SDS011;2243;48.812;9.232;2022-08-19T15:24:25;31.70;;;24.27;;
4460;SDS011;2243;48.812;9.232;2022-08-19T15:26:56;29.23;;;22.83;;
4460;SDS011;2243;48.812;9.232;2022-08-19T15:29:27;33.27;;;24.53;;
4460;SDS011;2243;48.812;9.232;2022-08-19T15:31:58;31.17;;;23.00;;
4460;SDS011;2243;48.812;9.232;2022-08-19T15:34:30;29.83;;;22.63;;
4460;SDS011;2243;48.812;9.232;2022-08-19T15:37:01;29.37;;;20.53;;
4460;SDS011;2243;48.812;9.232;2022-08-19T15:39:35;29.40;;;22.13;;
4460;SDS011;2243;48.812;9.232;2022-08-19T15:42:06;24.80;;;20.10;;